N951LB KLAX-
Flight info
| Callsign | N951LB |
|---|---|
| Flight time | N/A |
| Altitude | |
| Route | |
| Aircraft |
Departure
| Time | 2026-04-24 07:30 |
|---|---|
| Airport | Los Angeles International Airport (KLAX) |
Arrival
| Time | N/A |
|---|---|
| Airport | - |
| Time | Latitude | Longitude | Altitude | Speed | Heading |
|---|---|---|---|---|---|
| 2026-04-24 07:28 | 33.97138 | -118.28065 | 393 ft | 101 kts | 353° |
| 2026-04-24 07:28 | 33.97839 | -118.28059 | 453 ft | 98 kts | 352° |
| 2026-04-24 07:28 | 33.98519 | -118.28050 | 473 ft | 101 kts | 353° |
| 2026-04-24 07:28 | 33.99234 | -118.28098 | 472 ft | 100 kts | 338° |
| 2026-04-24 07:29 | 33.99862 | -118.28316 | 603 ft | 86 kts | 318° |
| 2026-04-24 07:29 | 34.00143 | -118.28936 | 636 ft | 88 kts | 280° |
| 2026-04-24 07:29 | 34.00332 | -118.29666 | 616 ft | 94 kts | 275° |
| 2026-04-24 07:29 | 34.00457 | -118.30430 | 692 ft | 90 kts | 270° |
| 2026-04-24 07:30 | 34.00503 | -118.31182 | 738 ft | 96 kts | 261° |
| 2026-04-24 07:30 | 34.00418 | -118.32037 | 687 ft | 109 kts | 252° |
| 2026-04-24 07:30 | 34.00245 | -118.32914 | 834 ft | 104 kts | 247° |
| 2026-04-24 07:30 | 34.00027 | -118.33739 | 947 ft | 106 kts | 243° |
| 2026-04-24 07:31 | 33.99798 | -118.34623 | 970 ft | 111 kts | 244° |
| 2026-04-24 07:31 | 33.99556 | -118.35517 | 978 ft | 112 kts | 245° |
| 2026-04-24 07:31 | 33.99302 | -118.36408 | 975 ft | 113 kts | 244° |
| 2026-04-24 07:31 | 33.99053 | -118.37304 | 967 ft | 114 kts | 246° |
| 2026-04-24 07:32 | 33.98829 | -118.38215 | 984 ft | 112 kts | 247° |
| 2026-04-24 07:32 | 33.98610 | -118.39095 | 1031 ft | 110 kts | 246° |
| 2026-04-24 07:32 | 33.98376 | -118.39966 | 1067 ft | 108 kts | 244° |
| 2026-04-24 07:32 | 33.98138 | -118.40802 | 1179 ft | 102 kts | 243° |
| 2026-04-24 07:33 | 33.97908 | -118.41580 | 1329 ft | 95 kts | 242° |
| 2026-04-24 07:33 | 33.97697 | -118.42290 | 1484 ft | 89 kts | 240° |
| 2026-04-24 07:33 | 33.97418 | -118.43082 | 1231 ft | 123 kts | 239° |
| 2026-04-24 07:33 | 33.97048 | -118.44001 | 778 ft | 121 kts | 242° |
| 2026-04-24 07:34 | 33.96687 | -118.44845 | 386 ft | 101 kts | 239° |
| 2026-04-24 07:34 | 33.96337 | -118.45398 | 260 ft | 61 kts | 206° |
| 2026-04-24 07:34 | 33.95975 | -118.45302 | 210 ft | 58 kts | 152° |
| 2026-04-24 07:34 | 33.95526 | -118.45113 | 163 ft | 78 kts | 152° |
| 2026-04-24 07:35 | 33.94971 | -118.44807 | 118 ft | 96 kts | 148° |
| 2026-04-24 07:35 | 33.94360 | -118.44426 | 133 ft | 99 kts | 149° |
| 2026-04-24 07:35 | 33.93728 | -118.44067 | 169 ft | 100 kts | 153° |
| 2026-04-24 07:35 | 33.93084 | -118.43834 | 262 ft | 95 kts | 162° |
| 2026-04-24 07:36 | 33.92434 | -118.43602 | 233 ft | 105 kts | 156° |
| 2026-04-24 07:36 | 33.91969 | -118.43385 | 174 ft | 110 kts | 154° |
| 2026-04-24 07:36 | 33.91265 | -118.43014 | 174 ft | 109 kts | 152° |
| 2026-04-24 07:36 | 33.90607 | -118.42633 | 257 ft | 101 kts | 149° |
| 2026-04-24 07:37 | 33.89965 | -118.42284 | 293 ft | 102 kts | 153° |
| 2026-04-24 07:37 | 33.89303 | -118.41988 | 333 ft | 101 kts | 157° |
| 2026-04-24 07:37 | 33.88632 | -118.41757 | 385 ft | 100 kts | 162° |
| 2026-04-24 07:37 | 33.87962 | -118.41609 | 473 ft | 95 kts | 168° |
| 2026-04-24 07:38 | 33.87330 | -118.41566 | 629 ft | 85 kts | 174° |
| 2026-04-24 07:38 | 33.86789 | -118.41634 | 857 ft | 68 kts | 180° |
| 2026-04-24 07:38 | 33.86379 | -118.41747 | 1083 ft | 53 kts | 176° |
| 2026-04-24 07:38 | 33.86081 | -118.41831 | 1327 ft | 35 kts | 170° |
| 2026-04-24 07:39 | 33.85906 | -118.41874 | 1528 ft | 19 kts | 162° |
| 2026-04-24 07:39 | 33.85673 | -118.41975 | 1589 ft | 52 kts | 173° |
| 2026-04-24 07:39 | 33.85251 | -118.42060 | 1684 ft | 70 kts | 172° |
| 2026-04-24 07:39 | 33.84711 | -118.42067 | 1766 ft | 85 kts | 167° |
| 2026-04-24 07:40 | 33.84082 | -118.42010 | 1817 ft | 96 kts | 166° |
| 2026-04-24 07:40 | 33.83381 | -118.41942 | 1825 ft | 106 kts | 169° |
| 2026-04-24 07:40 | 33.82627 | -118.41916 | 1869 ft | 108 kts | 173° |
| 2026-04-24 07:40 | 33.81878 | -118.41942 | 1908 ft | 111 kts | 176° |
| 2026-04-24 07:41 | 33.81060 | -118.42068 | 1679 ft | 121 kts | 184° |
| 2026-04-24 07:41 | 33.80268 | -118.42225 | 1690 ft | 113 kts | 183° |
| 2026-04-24 07:41 | 33.79510 | -118.42381 | 1709 ft | 107 kts | 185° |
| 2026-04-24 07:41 | 33.78816 | -118.42558 | 1513 ft | 97 kts | 188° |
| 2026-04-24 07:42 | 33.78198 | -118.42736 | 1253 ft | 88 kts | 183° |
| 2026-04-24 07:42 | 33.77618 | -118.42760 | 998 ft | 77 kts | 169° |
| 2026-04-24 07:42 | 33.77167 | -118.42630 | 793 ft | 56 kts | 155° |
| 2026-04-24 07:42 | 33.76931 | -118.42448 | 584 ft | 23 kts | 144° |
| 2026-04-24 07:43 | 33.76746 | -118.42322 | 690 ft | 56 kts | 131° |
| 2026-04-24 07:43 | 33.76258 | -118.41878 | 683 ft | 103 kts | 141° |
| 2026-04-24 07:43 | 33.75632 | -118.41506 | 632 ft | 99 kts | 156° |
| 2026-04-24 07:43 | 33.75011 | -118.41238 | 554 ft | 89 kts | 154° |
| 2026-04-24 07:44 | 33.74514 | -118.40908 | 456 ft | 73 kts | 141° |
| 2026-04-24 07:44 | 33.74208 | -118.40551 | 356 ft | 44 kts | 130° |
| 2026-04-24 07:44 | 33.74048 | -118.40482 | 202 ft | 22 kts | 133° |
| 2026-04-24 07:44 | 33.73933 | -118.40358 | 225 ft | 27 kts | 126° |
| 2026-04-24 07:45 | 33.73795 | -118.40254 | 269 ft | 23 kts | 129° |
| 2026-04-24 07:45 | 33.73676 | -118.40032 | 270 ft | 40 kts | 117° |
| 2026-04-24 07:45 | 33.73630 | -118.39767 | 176 ft | 21 kts | 72° |
| 2026-04-24 07:45 | 33.73695 | -118.39629 | 142 ft | 17 kts | 48° |
| 2026-04-24 07:46 | 33.73736 | -118.39515 | 93 ft | 20 kts | 14° |
| 2026-04-24 07:46 | 33.73761 | -118.39450 | 77 ft | 3 kts | 182° |
| 2026-04-24 07:46 | 33.73713 | -118.39222 | 166 ft | 70 kts | 71° |
| 2026-04-24 07:46 | 33.73769 | -118.38421 | 238 ft | 103 kts | 84° |
| 2026-04-24 07:47 | 33.73776 | -118.37620 | 540 ft | 91 kts | 85° |
| 2026-04-24 07:47 | 33.73623 | -118.37143 | 420 ft | 51 kts | 205° |
| 2026-04-24 07:47 | 33.73745 | -118.37090 | 206 ft | 35 kts | 320° |
| 2026-04-24 07:47 | 33.73810 | -118.37236 | 235 ft | 44 kts | 244° |
| 2026-04-24 07:48 | 33.73763 | -118.37489 | 126 ft | 1 kts | 101° |
| 2026-04-24 07:48 | 33.73762 | -118.37478 | 124 ft | 0 kts | 85° |
| 2026-04-24 07:51 | 33.73771 | -118.37422 | 178 ft | 28 kts | 45° |
| 2026-04-24 07:52 | 33.73779 | -118.37033 | 489 ft | 58 kts | 60° |
| 2026-04-24 07:52 | 33.73688 | -118.36477 | 810 ft | 80 kts | 90° |
| 2026-04-24 07:52 | 33.73553 | -118.35767 | 1146 ft | 90 kts | 96° |
| 2026-04-24 07:52 | 33.73396 | -118.35065 | 1607 ft | 88 kts | 94° |
| 2026-04-24 07:53 | 33.73334 | -118.34287 | 1940 ft | 92 kts | 84° |
| 2026-04-24 07:53 | 33.73380 | -118.33536 | 2329 ft | 91 kts | 73° |
| 2026-04-24 07:53 | 33.73523 | -118.32800 | 2538 ft | 90 kts | 66° |
| 2026-04-24 07:53 | 33.73727 | -118.32099 | 2705 ft | 87 kts | 59° |
| 2026-04-24 07:54 | 33.73979 | -118.31450 | 2829 ft | 82 kts | 53° |
| 2026-04-24 07:54 | 33.74252 | -118.30873 | 2866 ft | 76 kts | 50° |
| 2026-04-24 07:54 | 33.74522 | -118.30352 | 2743 ft | 70 kts | 49° |
| 2026-04-24 07:54 | 33.74773 | -118.29884 | 2564 ft | 63 kts | 49° |
| 2026-04-24 07:55 | 33.74991 | -118.29467 | 2310 ft | 55 kts | 50° |
| 2026-04-24 07:55 | 33.75094 | -118.29060 | 1977 ft | 48 kts | 96° |
| 2026-04-24 07:55 | 33.75000 | -118.28699 | 1553 ft | 44 kts | 107° |
| 2026-04-24 07:55 | 33.74760 | -118.28497 | 1125 ft | 43 kts | 139° |
| 2026-04-24 07:56 | 33.74551 | -118.28438 | 735 ft | 20 kts | 137° |
| 2026-04-24 07:56 | 33.74273 | -118.28115 | 551 ft | 86 kts | 128° |
| 2026-04-24 07:56 | 33.73866 | -118.27420 | 293 ft | 112 kts | 109° |
| 2026-04-24 07:56 | 33.73837 | -118.26507 | 259 ft | 112 kts | 76° |
| 2026-04-24 07:57 | 33.74002 | -118.25626 | 305 ft | 103 kts | 72° |
| 2026-04-24 07:57 | 33.74048 | -118.24827 | 355 ft | 89 kts | 86° |
| 2026-04-24 07:57 | 33.74072 | -118.24149 | 432 ft | 77 kts | 77° |
| 2026-04-24 07:57 | 33.74156 | -118.23558 | 532 ft | 65 kts | 70° |
| 2026-04-24 07:58 | 33.74267 | -118.23106 | 652 ft | 51 kts | 68° |
| 2026-04-24 07:58 | 33.74346 | -118.22730 | 715 ft | 42 kts | 71° |
| 2026-04-24 07:58 | 33.74396 | -118.22405 | 758 ft | 46 kts | 73° |
| 2026-04-24 07:58 | 33.74529 | -118.21923 | 639 ft | 75 kts | 66° |
| 2026-04-24 07:59 | 33.74709 | -118.21266 | 544 ft | 89 kts | 68° |
| 2026-04-24 07:59 | 33.74930 | -118.20570 | 516 ft | 88 kts | 61° |
| 2026-04-24 07:59 | 33.75191 | -118.19926 | 581 ft | 82 kts | 56° |
| 2026-04-24 07:59 | 33.75277 | -118.19305 | 626 ft | 75 kts | 107° |
| 2026-04-24 08:00 | 33.74889 | -118.18937 | 589 ft | 70 kts | 147° |
| 2026-04-24 08:00 | 33.74452 | -118.18693 | 483 ft | 57 kts | 145° |
| 2026-04-24 08:00 | 33.74690 | -118.18584 | 115 ft | 82 kts | 345° |
| 2026-04-24 08:00 | 33.74869 | -118.18794 | 178 ft | 3 kts | 287° |
| 2026-04-24 08:01 | 33.74907 | -118.18884 | 58 ft | 29 kts | 253° |
| 2026-04-24 08:01 | 33.74907 | -118.19004 | 18 ft | 0 kts | 245° |
| 2026-04-24 08:02 | 33.74907 | -118.19008 | 19 ft | 2 kts | 237° |
| 2026-04-24 08:02 | 33.74932 | -118.18870 | 65 ft | 20 kts | 17° |
| 2026-04-24 08:02 | 33.74939 | -118.18930 | 13 ft | 5 kts | 173° |
| 2026-04-24 08:02 | 33.74929 | -118.18954 | 29 ft | 18 kts | 225° |
| 2026-04-24 08:03 | 33.74913 | -118.19017 | 18 ft | 0 kts | 213° |
| 2026-04-24 08:04 | 33.74910 | -118.19008 | 58 ft | 4 kts | 166° |
| 2026-04-24 08:04 | 33.74986 | -118.19112 | 334 ft | 54 kts | 282° |
| 2026-04-24 08:04 | 33.75474 | -118.19375 | 501 ft | 96 kts | 323° |
| 2026-04-24 08:04 | 33.76030 | -118.19812 | 798 ft | 93 kts | 308° |
| 2026-04-24 08:05 | 33.76501 | -118.20444 | 805 ft | 110 kts | 302° |
| 2026-04-24 08:05 | 33.77010 | -118.21153 | 840 ft | 113 kts | 306° |
| 2026-04-24 08:05 | 33.77642 | -118.21750 | 738 ft | 117 kts | 333° |
| 2026-04-24 08:05 | 33.78417 | -118.21997 | 664 ft | 110 kts | 347° |
| 2026-04-24 08:06 | 33.79121 | -118.22059 | 731 ft | 93 kts | 358° |
| 2026-04-24 08:06 | 33.79695 | -118.21961 | 839 ft | 73 kts | 8° |
| 2026-04-24 08:06 | 33.80080 | -118.21755 | 926 ft | 49 kts | 18° |
| 2026-04-24 08:06 | 33.80217 | -118.21474 | 805 ft | 35 kts | 29° |
| 2026-04-24 08:07 | 33.80293 | -118.21200 | 795 ft | 50 kts | 32° |
| 2026-04-24 08:07 | 33.80575 | -118.20562 | 575 ft | 111 kts | 58° |
| 2026-04-24 08:07 | 33.80916 | -118.19780 | 768 ft | 100 kts | 57° |
| 2026-04-24 08:07 | 33.81235 | -118.19067 | 956 ft | 93 kts | 56° |
| 2026-04-24 08:08 | 33.81517 | -118.18424 | 1094 ft | 80 kts | 59° |
| 2026-04-24 08:08 | 33.81723 | -118.17870 | 1141 ft | 67 kts | 65° |
| 2026-04-24 08:08 | 33.81782 | -118.17342 | 1082 ft | 61 kts | 82° |
| 2026-04-24 08:09 | 33.81870 | -118.16513 | 912 ft | 51 kts | 75° |
| 2026-04-24 08:09 | 33.81869 | -118.16178 | 747 ft | 67 kts | 85° |
| 2026-04-24 08:09 | 33.81851 | -118.15570 | 601 ft | 74 kts | 89° |
| 2026-04-24 08:09 | 33.81803 | -118.15033 | 516 ft | 51 kts | 90° |
| 2026-04-24 08:10 | 33.81784 | -118.14740 | 340 ft | 20 kts | 81° |
| 2026-04-24 08:10 | 33.81755 | -118.14637 | 339 ft | 17 kts | 63° |
| 2026-04-24 08:10 | 33.81705 | -118.14476 | 369 ft | 20 kts | 66° |
| 2026-04-24 08:10 | 33.81707 | -118.14337 | 304 ft | 14 kts | 82° |
| 2026-04-24 08:11 | 33.81612 | -118.14238 | 213 ft | 13 kts | 78° |
| 2026-04-24 08:11 | 33.81613 | -118.14189 | 129 ft | 14 kts | 72° |
| 2026-04-24 08:11 | 33.81623 | -118.14180 | 89 ft | 3 kts | 76° |
| 2026-04-24 08:11 | 33.81625 | -118.14110 | 40 ft | 3 kts | 232° |
| 2026-04-24 08:12 | 33.81608 | -118.14142 | 39 ft | 0 kts | 337° |
| 2026-04-24 08:12 | 33.81611 | -118.14144 | 38 ft | 4 kts | 332° |
| 2026-04-24 08:12 | 33.81615 | -118.14143 | 37 ft | 0 kts | 268° |
| 2026-04-24 08:12 | 33.81616 | -118.14143 | 38 ft | 0 kts | 265° |
| 2026-04-24 08:13 | 33.81617 | -118.14144 | 38 ft | 0 kts | 264° |